sensor_id;sensor_type;location;lat;lon;timestamp;P1;durP1;ratioP1;P2;durP2;ratioP2
54743;SDS011;40639;53.170;6.728;2023-11-21T00:00:22;14.88;;;5.30;;
54743;SDS011;40639;53.170;6.728;2023-11-21T00:02:49;12.68;;;5.07;;
54743;SDS011;40639;53.170;6.728;2023-11-21T00:05:15;14.38;;;4.40;;
54743;SDS011;40639;53.170;6.728;2023-11-21T00:07:41;16.48;;;4.93;;
54743;SDS011;40639;53.170;6.728;2023-11-21T00:10:08;16.83;;;4.65;;
54743;SDS011;40639;53.170;6.728;2023-11-21T00:12:35;14.32;;;5.43;;
54743;SDS011;40639;53.170;6.728;2023-11-21T00:15:01;15.55;;;5.35;;
54743;SDS011;40639;53.170;6.728;2023-11-21T00:17:27;11.35;;;4.78;;
54743;SDS011;40639;53.170;6.728;2023-11-21T00:19:54;11.18;;;4.97;;
54743;SDS011;40639;53.170;6.728;2023-11-21T00:22:20;16.63;;;5.25;;
54743;SDS011;40639;53.170;6.728;2023-11-21T00:24:46;16.05;;;4.90;;
54743;SDS011;40639;53.170;6.728;2023-11-21T00:27:13;13.55;;;5.32;;
54743;SDS011;40639;53.170;6.728;2023-11-21T00:29:39;16.42;;;5.25;;
54743;SDS011;40639;53.170;6.728;2023-11-21T00:32:06;14.57;;;5.45;;
54743;SDS011;40639;53.170;6.728;2023-11-21T00:34:32;15.63;;;5.32;;
54743;SDS011;40639;53.170;6.728;2023-11-21T00:36:59;24.63;;;6.03;;
54743;SDS011;40639;53.170;6.728;2023-11-21T00:39:25;20.23;;;5.10;;
54743;SDS011;40639;53.170;6.728;2023-11-21T00:41:51;15.73;;;5.95;;
54743;SDS011;40639;53.170;6.728;2023-11-21T00:44:18;17.17;;;5.45;;
54743;SDS011;40639;53.170;6.728;2023-11-21T00:46:44;20.40;;;6.47;;
54743;SDS011;40639;53.170;6.728;2023-11-21T00:49:10;14.25;;;4.93;;
54743;SDS011;40639;53.170;6.728;2023-11-21T00:51:36;19.55;;;5.75;;
54743;SDS011;40639;53.170;6.728;2023-11-21T00:54:03;17.42;;;4.78;;
54743;SDS011;40639;53.170;6.728;2023-11-21T00:56:29;14.07;;;4.80;;
54743;SDS011;40639;53.170;6.728;2023-11-21T00:58:55;15.52;;;6.38;;
54743;SDS011;40639;53.170;6.728;2023-11-21T01:01:21;20.08;;;6.55;;
54743;SDS011;40639;53.170;6.728;2023-11-21T01:03:48;18.15;;;5.90;;
54743;SDS011;40639;53.170;6.728;2023-11-21T01:06:14;20.30;;;6.10;;
54743;SDS011;40639;53.170;6.728;2023-11-21T01:08:41;20.15;;;6.80;;
54743;SDS011;40639;53.170;6.728;2023-11-21T01:11:07;16.15;;;6.40;;
54743;SDS011;40639;53.170;6.728;2023-11-21T01:13:33;17.92;;;6.47;;
54743;SDS011;40639;53.170;6.728;2023-11-21T01:16:00;18.83;;;6.47;;
54743;SDS011;40639;53.170;6.728;2023-11-21T01:18:26;23.20;;;7.43;;
54743;SDS011;40639;53.170;6.728;2023-11-21T01:20:54;18.17;;;6.20;;
54743;SDS011;40639;53.170;6.728;2023-11-21T01:23:20;20.40;;;5.85;;
54743;SDS011;40639;53.170;6.728;2023-11-21T01:25:47;22.80;;;6.97;;
54743;SDS011;40639;53.170;6.728;2023-11-21T01:28:13;18.83;;;6.47;;
54743;SDS011;40639;53.170;6.728;2023-11-21T01:30:39;23.00;;;7.32;;
54743;SDS011;40639;53.170;6.728;2023-11-21T01:33:05;16.83;;;6.57;;
54743;SDS011;40639;53.170;6.728;2023-11-21T01:35:32;20.90;;;6.65;;
54743;SDS011;40639;53.170;6.728;2023-11-21T01:37:59;25.20;;;7.07;;
54743;SDS011;40639;53.170;6.728;2023-11-21T01:40:25;20.67;;;7.35;;
54743;SDS011;40639;53.170;6.728;2023-11-21T01:42:52;19.75;;;7.00;;
54743;SDS011;40639;53.170;6.728;2023-11-21T01:45:19;23.30;;;7.85;;
54743;SDS011;40639;53.170;6.728;2023-11-21T01:47:45;25.55;;;8.10;;
54743;SDS011;40639;53.170;6.728;2023-11-21T01:50:15;16.95;;;7.10;;
54743;SDS011;40639;53.170;6.728;2023-11-21T01:52:42;18.30;;;7.95;;
54743;SDS011;40639;53.170;6.728;2023-11-21T01:55:09;19.98;;;6.60;;
54743;SDS011;40639;53.170;6.728;2023-11-21T01:57:37;20.25;;;6.57;;
54743;SDS011;40639;53.170;6.728;2023-11-21T02:00:04;21.05;;;6.90;;
54743;SDS011;40639;53.170;6.728;2023-11-21T02:02:48;25.00;;;7.53;;
54743;SDS011;40639;53.170;6.728;2023-11-21T02:05:15;21.88;;;7.68;;
54743;SDS011;40639;53.170;6.728;2023-11-21T02:07:43;23.92;;;7.55;;
54743;SDS011;40639;53.170;6.728;2023-11-21T02:10:10;23.77;;;7.65;;
54743;SDS011;40639;53.170;6.728;2023-11-21T02:12:44;26.63;;;7.32;;
54743;SDS011;40639;53.170;6.728;2023-11-21T02:15:11;21.27;;;8.10;;
54743;SDS011;40639;53.170;6.728;2023-11-21T02:17:45;24.70;;;9.40;;
54743;SDS011;40639;53.170;6.728;2023-11-21T02:20:12;21.92;;;8.15;;
54743;SDS011;40639;53.170;6.728;2023-11-21T02:22:43;23.95;;;8.05;;
54743;SDS011;40639;53.170;6.728;2023-11-21T02:25:09;25.42;;;9.98;;
54743;SDS011;40639;53.170;6.728;2023-11-21T02:27:36;27.42;;;9.35;;
54743;SDS011;40639;53.170;6.728;2023-11-21T02:30:02;27.48;;;10.13;;
54743;SDS011;40639;53.170;6.728;2023-11-21T02:32:30;31.52;;;9.30;;
54743;SDS011;40639;53.170;6.728;2023-11-21T02:34:56;31.75;;;10.05;;
54743;SDS011;40639;53.170;6.728;2023-11-21T02:37:26;35.13;;;10.70;;
54743;SDS011;40639;53.170;6.728;2023-11-21T02:39:52;27.92;;;9.52;;
54743;SDS011;40639;53.170;6.728;2023-11-21T02:42:18;25.75;;;9.23;;
54743;SDS011;40639;53.170;6.728;2023-11-21T02:44:44;23.50;;;8.65;;
54743;SDS011;40639;53.170;6.728;2023-11-21T02:47:10;29.73;;;9.15;;
54743;SDS011;40639;53.170;6.728;2023-11-21T02:49:37;31.38;;;10.20;;
54743;SDS011;40639;53.170;6.728;2023-11-21T02:52:03;33.80;;;10.30;;
54743;SDS011;40639;53.170;6.728;2023-11-21T02:54:29;30.55;;;10.30;;
54743;SDS011;40639;53.170;6.728;2023-11-21T02:56:56;39.35;;;10.55;;
54743;SDS011;40639;53.170;6.728;2023-11-21T02:59:23;35.50;;;10.75;;
54743;SDS011;40639;53.170;6.728;2023-11-21T03:01:50;31.88;;;10.45;;
54743;SDS011;40639;53.170;6.728;2023-11-21T03:04:16;30.10;;;10.32;;
54743;SDS011;40639;53.170;6.728;2023-11-21T03:06:43;38.85;;;10.77;;
54743;SDS011;40639;53.170;6.728;2023-11-21T03:09:09;37.00;;;11.30;;
54743;SDS011;40639;53.170;6.728;2023-11-21T03:11:37;34.55;;;10.82;;
54743;SDS011;40639;53.170;6.728;2023-11-21T03:14:03;39.47;;;12.07;;
54743;SDS011;40639;53.170;6.728;2023-11-21T03:16:31;36.35;;;11.57;;
54743;SDS011;40639;53.170;6.728;2023-11-21T03:18:57;31.83;;;11.98;;
54743;SDS011;40639;53.170;6.728;2023-11-21T03:21:24;34.25;;;11.35;;
54743;SDS011;40639;53.170;6.728;2023-11-21T03:23:51;39.85;;;12.25;;
54743;SDS011;40639;53.170;6.728;2023-11-21T03:26:18;29.23;;;10.77;;
54743;SDS011;40639;53.170;6.728;2023-11-21T03:28:44;37.10;;;11.73;;
54743;SDS011;40639;53.170;6.728;2023-11-21T03:31:11;32.45;;;11.63;;
54743;SDS011;40639;53.170;6.728;2023-11-21T03:33:37;33.78;;;11.38;;
54743;SDS011;40639;53.170;6.728;2023-11-21T03:36:03;40.63;;;12.07;;
54743;SDS011;40639;53.170;6.728;2023-11-21T03:38:29;45.03;;;12.52;;
54743;SDS011;40639;53.170;6.728;2023-11-21T03:40:56;36.58;;;11.95;;
54743;SDS011;40639;53.170;6.728;2023-11-21T03:43:22;46.03;;;12.55;;
54743;SDS011;40639;53.170;6.728;2023-11-21T03:45:49;32.38;;;11.85;;
54743;SDS011;40639;53.170;6.728;2023-11-21T03:48:15;42.78;;;13.02;;
54743;SDS011;40639;53.170;6.728;2023-11-21T03:50:41;40.88;;;13.60;;
54743;SDS011;40639;53.170;6.728;2023-11-21T03:53:08;39.05;;;13.68;;
54743;SDS011;40639;53.170;6.728;2023-11-21T03:55:34;45.40;;;14.30;;
54743;SDS011;40639;53.170;6.728;2023-11-21T03:58:00;43.25;;;12.35;;
54743;SDS011;40639;53.170;6.728;2023-11-21T04:00:27;38.17;;;13.90;;
54743;SDS011;40639;53.170;6.728;2023-11-21T04:02:53;39.03;;;13.80;;
54743;SDS011;40639;53.170;6.728;2023-11-21T04:05:20;42.92;;;13.02;;
54743;SDS011;40639;53.170;6.728;2023-11-21T04:07:50;44.22;;;13.75;;
54743;SDS011;40639;53.170;6.728;2023-11-21T04:10:16;42.67;;;13.88;;
54743;SDS011;40639;53.170;6.728;2023-11-21T04:12:43;44.10;;;15.50;;
54743;SDS011;40639;53.170;6.728;2023-11-21T04:15:10;44.67;;;14.65;;
54743;SDS011;40639;53.170;6.728;2023-11-21T04:17:38;38.33;;;14.35;;
54743;SDS011;40639;53.170;6.728;2023-11-21T04:20:05;50.38;;;14.75;;
54743;SDS011;40639;53.170;6.728;2023-11-21T04:22:41;45.05;;;14.55;;
54743;SDS011;40639;53.170;6.728;2023-11-21T04:25:09;51.08;;;13.38;;
54743;SDS011;40639;53.170;6.728;2023-11-21T04:27:36;41.22;;;13.95;;
54743;SDS011;40639;53.170;6.728;2023-11-21T04:30:02;53.58;;;15.63;;
54743;SDS011;40639;53.170;6.728;2023-11-21T04:32:28;71.00;;;17.30;;
54743;SDS011;40639;53.170;6.728;2023-11-21T04:34:55;40.30;;;14.02;;
54743;SDS011;40639;53.170;6.728;2023-11-21T04:37:21;52.40;;;14.85;;
54743;SDS011;40639;53.170;6.728;2023-11-21T04:39:47;50.53;;;15.35;;
54743;SDS011;40639;53.170;6.728;2023-11-21T04:42:14;48.03;;;14.93;;
54743;SDS011;40639;53.170;6.728;2023-11-21T04:44:40;56.05;;;14.00;;
54743;SDS011;40639;53.170;6.728;2023-11-21T04:47:06;52.03;;;15.65;;
54743;SDS011;40639;53.170;6.728;2023-11-21T04:49:33;52.90;;;14.80;;
54743;SDS011;40639;53.170;6.728;2023-11-21T04:51:59;58.28;;;14.88;;
54743;SDS011;40639;53.170;6.728;2023-11-21T04:54:26;41.20;;;13.75;;
54743;SDS011;40639;53.170;6.728;2023-11-21T04:56:52;49.08;;;13.50;;
54743;SDS011;40639;53.170;6.728;2023-11-21T04:59:18;43.10;;;13.73;;
54743;SDS011;40639;53.170;6.728;2023-11-21T05:01:45;45.33;;;13.40;;
54743;SDS011;40639;53.170;6.728;2023-11-21T05:04:11;34.20;;;13.10;;
54743;SDS011;40639;53.170;6.728;2023-11-21T05:06:37;40.35;;;13.25;;
54743;SDS011;40639;53.170;6.728;2023-11-21T05:09:03;38.92;;;12.98;;
54743;SDS011;40639;53.170;6.728;2023-11-21T05:11:29;32.13;;;12.23;;
54743;SDS011;40639;53.170;6.728;2023-11-21T05:13:57;37.38;;;12.20;;
54743;SDS011;40639;53.170;6.728;2023-11-21T05:16:26;36.83;;;13.18;;
54743;SDS011;40639;53.170;6.728;2023-11-21T05:18:52;31.67;;;12.50;;
54743;SDS011;40639;53.170;6.728;2023-11-21T05:21:21;30.90;;;11.35;;
54743;SDS011;40639;53.170;6.728;2023-11-21T05:23:48;29.20;;;10.52;;
54743;SDS011;40639;53.170;6.728;2023-11-21T05:26:14;28.92;;;8.82;;
54743;SDS011;40639;53.170;6.728;2023-11-21T05:28:40;23.02;;;8.38;;
54743;SDS011;40639;53.170;6.728;2023-11-21T05:31:06;19.35;;;7.80;;
54743;SDS011;40639;53.170;6.728;2023-11-21T05:33:32;23.30;;;7.97;;
54743;SDS011;40639;53.170;6.728;2023-11-21T05:35:59;21.77;;;7.95;;
54743;SDS011;40639;53.170;6.728;2023-11-21T05:38:25;20.05;;;7.78;;
54743;SDS011;40639;53.170;6.728;2023-11-21T05:40:51;18.45;;;7.72;;
54743;SDS011;40639;53.170;6.728;2023-11-21T05:43:17;20.85;;;8.10;;
54743;SDS011;40639;53.170;6.728;2023-11-21T05:45:43;21.42;;;7.55;;
54743;SDS011;40639;53.170;6.728;2023-11-21T05:48:09;22.42;;;7.78;;
54743;SDS011;40639;53.170;6.728;2023-11-21T05:50:35;19.45;;;8.63;;
54743;SDS011;40639;53.170;6.728;2023-11-21T05:53:03;26.27;;;9.05;;
54743;SDS011;40639;53.170;6.728;2023-11-21T05:55:29;20.08;;;8.82;;
54743;SDS011;40639;53.170;6.728;2023-11-21T05:57:56;24.17;;;9.13;;
54743;SDS011;40639;53.170;6.728;2023-11-21T06:00:22;26.95;;;9.40;;
54743;SDS011;40639;53.170;6.728;2023-11-21T06:02:51;21.88;;;9.35;;
54743;SDS011;40639;53.170;6.728;2023-11-21T06:05:21;19.35;;;9.38;;
54743;SDS011;40639;53.170;6.728;2023-11-21T06:07:48;23.05;;;9.98;;
54743;SDS011;40639;53.170;6.728;2023-11-21T06:10:15;22.48;;;8.90;;
54743;SDS011;40639;53.170;6.728;2023-11-21T06:12:42;18.73;;;9.30;;
54743;SDS011;40639;53.170;6.728;2023-11-21T06:15:09;24.10;;;9.65;;
54743;SDS011;40639;53.170;6.728;2023-11-21T06:17:38;22.48;;;10.15;;
54743;SDS011;40639;53.170;6.728;2023-11-21T06:20:05;28.90;;;10.90;;
54743;SDS011;40639;53.170;6.728;2023-11-21T06:22:44;24.52;;;10.15;;
54743;SDS011;40639;53.170;6.728;2023-11-21T06:25:11;25.23;;;10.90;;
54743;SDS011;40639;53.170;6.728;2023-11-21T06:27:38;24.27;;;9.30;;
54743;SDS011;40639;53.170;6.728;2023-11-21T06:30:05;19.90;;;8.55;;
54743;SDS011;40639;53.170;6.728;2023-11-21T06:32:35;19.55;;;9.30;;
54743;SDS011;40639;53.170;6.728;2023-11-21T06:35:04;19.75;;;8.10;;
54743;SDS011;40639;53.170;6.728;2023-11-21T06:37:31;20.05;;;7.95;;
54743;SDS011;40639;53.170;6.728;2023-11-21T06:39:57;21.67;;;8.50;;
54743;SDS011;40639;53.170;6.728;2023-11-21T06:42:24;18.15;;;7.43;;
54743;SDS011;40639;53.170;6.728;2023-11-21T06:44:50;20.75;;;7.82;;
54743;SDS011;40639;53.170;6.728;2023-11-21T06:47:17;19.40;;;9.07;;
54743;SDS011;40639;53.170;6.728;2023-11-21T06:49:45;18.98;;;8.60;;
54743;SDS011;40639;53.170;6.728;2023-11-21T06:52:13;17.77;;;8.10;;
54743;SDS011;40639;53.170;6.728;2023-11-21T06:54:39;20.92;;;9.30;;
54743;SDS011;40639;53.170;6.728;2023-11-21T06:57:05;19.30;;;8.75;;
54743;SDS011;40639;53.170;6.728;2023-11-21T06:59:32;19.30;;;8.70;;
54743;SDS011;40639;53.170;6.728;2023-11-21T07:01:59;17.55;;;8.30;;
54743;SDS011;40639;53.170;6.728;2023-11-21T07:04:25;16.73;;;8.75;;
54743;SDS011;40639;53.170;6.728;2023-11-21T07:06:51;16.52;;;7.55;;
54743;SDS011;40639;53.170;6.728;2023-11-21T07:09:17;19.65;;;8.25;;
54743;SDS011;40639;53.170;6.728;2023-11-21T07:11:47;17.80;;;7.78;;
54743;SDS011;40639;53.170;6.728;2023-11-21T07:14:14;16.38;;;7.97;;
54743;SDS011;40639;53.170;6.728;2023-11-21T07:16:40;18.15;;;8.27;;
54743;SDS011;40639;53.170;6.728;2023-11-21T07:19:06;18.13;;;8.95;;
54743;SDS011;40639;53.170;6.728;2023-11-21T07:21:33;19.02;;;9.57;;
54743;SDS011;40639;53.170;6.728;2023-11-21T07:24:00;19.25;;;9.50;;
54743;SDS011;40639;53.170;6.728;2023-11-21T07:26:26;17.83;;;8.85;;
54743;SDS011;40639;53.170;6.728;2023-11-21T07:28:53;18.30;;;8.80;;
54743;SDS011;40639;53.170;6.728;2023-11-21T07:31:19;19.83;;;9.05;;
54743;SDS011;40639;53.170;6.728;2023-11-21T07:33:45;22.77;;;11.45;;
54743;SDS011;40639;53.170;6.728;2023-11-21T07:36:12;23.20;;;10.48;;
54743;SDS011;40639;53.170;6.728;2023-11-21T07:38:39;22.45;;;10.50;;
54743;SDS011;40639;53.170;6.728;2023-11-21T07:41:05;21.98;;;9.88;;
54743;SDS011;40639;53.170;6.728;2023-11-21T07:43:33;22.48;;;9.95;;
54743;SDS011;40639;53.170;6.728;2023-11-21T07:46:03;20.35;;;9.25;;
54743;SDS011;40639;53.170;6.728;2023-11-21T07:48:33;19.63;;;10.45;;
54743;SDS011;40639;53.170;6.728;2023-11-21T07:51:00;18.75;;;9.45;;
54743;SDS011;40639;53.170;6.728;2023-11-21T07:53:27;20.42;;;9.40;;
54743;SDS011;40639;53.170;6.728;2023-11-21T07:55:56;22.15;;;10.85;;
54743;SDS011;40639;53.170;6.728;2023-11-21T07:58:22;20.58;;;10.80;;
54743;SDS011;40639;53.170;6.728;2023-11-21T08:00:49;21.85;;;10.77;;
54743;SDS011;40639;53.170;6.728;2023-11-21T08:03:15;21.35;;;10.73;;
54743;SDS011;40639;53.170;6.728;2023-11-21T08:05:42;20.55;;;10.70;;
54743;SDS011;40639;53.170;6.728;2023-11-21T08:08:08;18.08;;;10.13;;
54743;SDS011;40639;53.170;6.728;2023-11-21T08:10:34;19.60;;;10.20;;
54743;SDS011;40639;53.170;6.728;2023-11-21T08:13:01;19.70;;;10.80;;
54743;SDS011;40639;53.170;6.728;2023-11-21T08:15:27;26.60;;;12.73;;
54743;SDS011;40639;53.170;6.728;2023-11-21T08:17:54;22.33;;;10.60;;
54743;SDS011;40639;53.170;6.728;2023-11-21T08:20:20;21.25;;;10.98;;
54743;SDS011;40639;53.170;6.728;2023-11-21T08:22:47;29.83;;;14.05;;
54743;SDS011;40639;53.170;6.728;2023-11-21T08:25:13;25.35;;;12.02;;
54743;SDS011;40639;53.170;6.728;2023-11-21T08:27:40;23.67;;;12.57;;
54743;SDS011;40639;53.170;6.728;2023-11-21T08:30:06;20.60;;;11.05;;
54743;SDS011;40639;53.170;6.728;2023-11-21T08:32:32;21.25;;;13.10;;
54743;SDS011;40639;53.170;6.728;2023-11-21T08:34:59;19.60;;;11.05;;
54743;SDS011;40639;53.170;6.728;2023-11-21T08:37:26;21.45;;;12.25;;
54743;SDS011;40639;53.170;6.728;2023-11-21T08:39:55;18.65;;;10.43;;
54743;SDS011;40639;53.170;6.728;2023-11-21T08:42:24;19.80;;;9.50;;
54743;SDS011;40639;53.170;6.728;2023-11-21T08:44:55;16.17;;;10.18;;
54743;SDS011;40639;53.170;6.728;2023-11-21T08:47:23;16.90;;;9.32;;
54743;SDS011;40639;53.170;6.728;2023-11-21T08:49:52;16.75;;;9.25;;
54743;SDS011;40639;53.170;6.728;2023-11-21T08:52:18;17.23;;;9.30;;
54743;SDS011;40639;53.170;6.728;2023-11-21T08:54:51;16.35;;;8.65;;
54743;SDS011;40639;53.170;6.728;2023-11-21T08:57:24;16.10;;;8.77;;
54743;SDS011;40639;53.170;6.728;2023-11-21T08:59:50;16.23;;;8.75;;
54743;SDS011;40639;53.170;6.728;2023-11-21T09:02:20;14.95;;;9.18;;
54743;SDS011;40639;53.170;6.728;2023-11-21T09:04:48;13.57;;;8.80;;
54743;SDS011;40639;53.170;6.728;2023-11-21T09:07:15;14.52;;;8.35;;
54743;SDS011;40639;53.170;6.728;2023-11-21T09:09:42;14.18;;;8.80;;
54743;SDS011;40639;53.170;6.728;2023-11-21T09:12:08;14.57;;;8.32;;
54743;SDS011;40639;53.170;6.728;2023-11-21T09:14:37;14.55;;;8.35;;
54743;SDS011;40639;53.170;6.728;2023-11-21T09:17:05;13.77;;;8.35;;
54743;SDS011;40639;53.170;6.728;2023-11-21T09:19:39;15.43;;;9.18;;
54743;SDS011;40639;53.170;6.728;2023-11-21T09:22:06;15.70;;;9.13;;
54743;SDS011;40639;53.170;6.728;2023-11-21T09:24:32;16.48;;;8.88;;
54743;SDS011;40639;53.170;6.728;2023-11-21T09:26:59;15.52;;;8.43;;
54743;SDS011;40639;53.170;6.728;2023-11-21T09:29:26;15.48;;;8.52;;
54743;SDS011;40639;53.170;6.728;2023-11-21T09:31:52;15.45;;;8.13;;
54743;SDS011;40639;53.170;6.728;2023-11-21T09:34:20;15.00;;;7.93;;
54743;SDS011;40639;53.170;6.728;2023-11-21T09:36:46;12.38;;;7.00;;
54743;SDS011;40639;53.170;6.728;2023-11-21T09:39:12;13.32;;;7.07;;
54743;SDS011;40639;53.170;6.728;2023-11-21T09:44:10;13.55;;;7.13;;
54743;SDS011;40639;53.170;6.728;2023-11-21T09:46:41;12.38;;;6.70;;
54743;SDS011;40639;53.170;6.728;2023-11-21T09:49:10;9.95;;;5.70;;
54743;SDS011;40639;53.170;6.728;2023-11-21T09:51:44;9.85;;;5.85;;
54743;SDS011;40639;53.170;6.728;2023-11-21T09:54:11;9.80;;;6.13;;
54743;SDS011;40639;53.170;6.728;2023-11-21T09:56:38;11.77;;;6.13;;
54743;SDS011;40639;53.170;6.728;2023-11-21T09:59:05;10.55;;;6.18;;
54743;SDS011;40639;53.170;6.728;2023-11-21T10:01:35;10.52;;;5.32;;
54743;SDS011;40639;53.170;6.728;2023-11-21T10:04:05;11.07;;;5.18;;
54743;SDS011;40639;53.170;6.728;2023-11-21T10:06:37;10.98;;;5.85;;
54743;SDS011;40639;53.170;6.728;2023-11-21T10:09:03;8.70;;;5.30;;
54743;SDS011;40639;53.170;6.728;2023-11-21T10:11:36;9.20;;;5.32;;
54743;SDS011;40639;53.170;6.728;2023-11-21T10:14:03;9.10;;;4.95;;
54743;SDS011;40639;53.170;6.728;2023-11-21T10:16:30;9.73;;;5.35;;
54743;SDS011;40639;53.170;6.728;2023-11-21T10:18:57;8.52;;;5.10;;
54743;SDS011;40639;53.170;6.728;2023-11-21T10:21:24;9.60;;;4.95;;
54743;SDS011;40639;53.170;6.728;2023-11-21T10:23:50;9.07;;;5.03;;
54743;SDS011;40639;53.170;6.728;2023-11-21T10:26:18;7.78;;;4.70;;
54743;SDS011;40639;53.170;6.728;2023-11-21T10:31:42;9.63;;;5.35;;
54743;SDS011;40639;53.170;6.728;2023-11-21T10:34:13;8.38;;;4.53;;
54743;SDS011;40639;53.170;6.728;2023-11-21T10:36:40;10.32;;;5.70;;
54743;SDS011;40639;53.170;6.728;2023-11-21T10:39:06;10.63;;;5.10;;
54743;SDS011;40639;53.170;6.728;2023-11-21T10:41:33;7.82;;;4.93;;
54743;SDS011;40639;53.170;6.728;2023-11-21T10:44:00;9.98;;;5.43;;
54743;SDS011;40639;53.170;6.728;2023-11-21T10:46:29;9.40;;;5.43;;
54743;SDS011;40639;53.170;6.728;2023-11-21T10:48:56;10.98;;;5.18;;
54743;SDS011;40639;53.170;6.728;2023-11-21T10:51:22;8.02;;;4.38;;
54743;SDS011;40639;53.170;6.728;2023-11-21T10:53:51;8.75;;;4.72;;
54743;SDS011;40639;53.170;6.728;2023-11-21T10:56:18;9.52;;;5.18;;
54743;SDS011;40639;53.170;6.728;2023-11-21T10:58:48;8.82;;;4.82;;
54743;SDS011;40639;53.170;6.728;2023-11-21T11:01:14;8.13;;;4.65;;
54743;SDS011;40639;53.170;6.728;2023-11-21T11:03:42;7.63;;;4.97;;
54743;SDS011;40639;53.170;6.728;2023-11-21T11:06:10;7.70;;;4.40;;
54743;SDS011;40639;53.170;6.728;2023-11-21T11:08:40;8.45;;;4.43;;
54743;SDS011;40639;53.170;6.728;2023-11-21T11:11:06;7.93;;;4.50;;
54743;SDS011;40639;53.170;6.728;2023-11-21T11:13:34;6.88;;;3.85;;
54743;SDS011;40639;53.170;6.728;2023-11-21T11:16:01;8.48;;;3.95;;
54743;SDS011;40639;53.170;6.728;2023-11-21T11:18:28;7.75;;;4.20;;
54743;SDS011;40639;53.170;6.728;2023-11-21T11:20:57;7.38;;;4.68;;
54743;SDS011;40639;53.170;6.728;2023-11-21T11:26:06;7.95;;;4.18;;
54743;SDS011;40639;53.170;6.728;2023-11-21T11:28:45;6.72;;;4.07;;
54743;SDS011;40639;53.170;6.728;2023-11-21T11:31:26;9.55;;;4.80;;
54743;SDS011;40639;53.170;6.728;2023-11-21T11:33:55;7.10;;;4.30;;
54743;SDS011;40639;53.170;6.728;2023-11-21T11:36:29;6.82;;;4.00;;
54743;SDS011;40639;53.170;6.728;2023-11-21T11:38:55;8.75;;;4.65;;
54743;SDS011;40639;53.170;6.728;2023-11-21T11:41:26;7.28;;;4.30;;
54743;SDS011;40639;53.170;6.728;2023-11-21T11:43:53;8.43;;;4.47;;
54743;SDS011;40639;53.170;6.728;2023-11-21T11:46:19;8.18;;;4.72;;
54743;SDS011;40639;53.170;6.728;2023-11-21T11:48:48;7.20;;;4.20;;
54743;SDS011;40639;53.170;6.728;2023-11-21T11:51:28;9.07;;;5.28;;
54743;SDS011;40639;53.170;6.728;2023-11-21T11:53:56;9.25;;;4.55;;
54743;SDS011;40639;53.170;6.728;2023-11-21T11:58:51;8.10;;;4.13;;
54743;SDS011;40639;53.170;6.728;2023-11-21T12:01:20;8.55;;;4.10;;
54743;SDS011;40639;53.170;6.728;2023-11-21T12:06:35;7.07;;;4.03;;
54743;SDS011;40639;53.170;6.728;2023-11-21T12:09:01;6.53;;;3.58;;
54743;SDS011;40639;53.170;6.728;2023-11-21T12:11:31;7.10;;;3.58;;
54743;SDS011;40639;53.170;6.728;2023-11-21T12:13:58;6.13;;;3.67;;
54743;SDS011;40639;53.170;6.728;2023-11-21T12:16:25;8.15;;;4.47;;
54743;SDS011;40639;53.170;6.728;2023-11-21T12:18:54;6.90;;;3.95;;
54743;SDS011;40639;53.170;6.728;2023-11-21T12:21:20;8.02;;;4.30;;
54743;SDS011;40639;53.170;6.728;2023-11-21T12:23:48;6.90;;;3.90;;
54743;SDS011;40639;53.170;6.728;2023-11-21T12:26:14;6.63;;;4.13;;
54743;SDS011;40639;53.170;6.728;2023-11-21T12:28:40;8.10;;;3.92;;
54743;SDS011;40639;53.170;6.728;2023-11-21T12:31:06;6.55;;;3.95;;
54743;SDS011;40639;53.170;6.728;2023-11-21T12:33:32;8.70;;;4.47;;
54743;SDS011;40639;53.170;6.728;2023-11-21T12:36:00;8.82;;;4.25;;
54743;SDS011;40639;53.170;6.728;2023-11-21T12:38:33;7.38;;;4.05;;
54743;SDS011;40639;53.170;6.728;2023-11-21T12:41:00;8.05;;;4.00;;
54743;SDS011;40639;53.170;6.728;2023-11-21T12:43:26;7.93;;;4.00;;
54743;SDS011;40639;53.170;6.728;2023-11-21T12:46:04;8.98;;;4.30;;
54743;SDS011;40639;53.170;6.728;2023-11-21T12:48:31;7.22;;;4.50;;
54743;SDS011;40639;53.170;6.728;2023-11-21T12:50:57;8.57;;;4.60;;
54743;SDS011;40639;53.170;6.728;2023-11-21T12:53:25;9.13;;;4.50;;
54743;SDS011;40639;53.170;6.728;2023-11-21T12:55:58;8.25;;;4.55;;
54743;SDS011;40639;53.170;6.728;2023-11-21T12:58:26;8.40;;;5.00;;
54743;SDS011;40639;53.170;6.728;2023-11-21T13:00:52;10.63;;;5.10;;
54743;SDS011;40639;53.170;6.728;2023-11-21T13:03:19;10.25;;;5.30;;
54743;SDS011;40639;53.170;6.728;2023-11-21T13:05:50;8.48;;;4.57;;
54743;SDS011;40639;53.170;6.728;2023-11-21T13:08:18;5.93;;;3.92;;
54743;SDS011;40639;53.170;6.728;2023-11-21T13:10:48;8.85;;;4.60;;
54743;SDS011;40639;53.170;6.728;2023-11-21T13:13:14;8.90;;;4.57;;
54743;SDS011;40639;53.170;6.728;2023-11-21T13:15:47;8.25;;;4.82;;
54743;SDS011;40639;53.170;6.728;2023-11-21T13:18:13;7.80;;;4.50;;
54743;SDS011;40639;53.170;6.728;2023-11-21T13:20:41;7.97;;;4.38;;
54743;SDS011;40639;53.170;6.728;2023-11-21T13:23:08;7.47;;;4.47;;
54743;SDS011;40639;53.170;6.728;2023-11-21T13:25:37;8.50;;;3.95;;
54743;SDS011;40639;53.170;6.728;2023-11-21T13:28:06;6.25;;;3.65;;
54743;SDS011;40639;53.170;6.728;2023-11-21T13:30:32;7.38;;;4.28;;
54743;SDS011;40639;53.170;6.728;2023-11-21T13:33:04;6.80;;;4.20;;
54743;SDS011;40639;53.170;6.728;2023-11-21T13:38:08;6.15;;;3.65;;
54743;SDS011;40639;53.170;6.728;2023-11-21T13:40:35;10.32;;;4.28;;
54743;SDS011;40639;53.170;6.728;2023-11-21T13:43:10;8.27;;;4.03;;
54743;SDS011;40639;53.170;6.728;2023-11-21T13:45:36;10.05;;;4.47;;
54743;SDS011;40639;53.170;6.728;2023-11-21T13:48:04;7.70;;;4.15;;
54743;SDS011;40639;53.170;6.728;2023-11-21T13:50:35;8.35;;;4.18;;
54743;SDS011;40639;53.170;6.728;2023-11-21T13:53:01;8.82;;;3.83;;
54743;SDS011;40639;53.170;6.728;2023-11-21T13:55:34;8.15;;;4.72;;
54743;SDS011;40639;53.170;6.728;2023-11-21T13:58:01;9.43;;;4.78;;
54743;SDS011;40639;53.170;6.728;2023-11-21T14:00:29;9.02;;;4.57;;
54743;SDS011;40639;53.170;6.728;2023-11-21T14:03:10;7.68;;;4.13;;
54743;SDS011;40639;53.170;6.728;2023-11-21T14:05:44;9.02;;;5.18;;
54743;SDS011;40639;53.170;6.728;2023-11-21T14:08:13;9.70;;;5.38;;
54743;SDS011;40639;53.170;6.728;2023-11-21T14:10:42;7.80;;;4.45;;
54743;SDS011;40639;53.170;6.728;2023-11-21T14:13:09;7.20;;;4.32;;
54743;SDS011;40639;53.170;6.728;2023-11-21T14:15:36;8.27;;;4.00;;
54743;SDS011;40639;53.170;6.728;2023-11-21T14:18:07;8.02;;;4.32;;
54743;SDS011;40639;53.170;6.728;2023-11-21T14:20:36;8.25;;;4.53;;
54743;SDS011;40639;53.170;6.728;2023-11-21T14:23:03;7.78;;;4.45;;
54743;SDS011;40639;53.170;6.728;2023-11-21T14:25:33;8.65;;;5.00;;
54743;SDS011;40639;53.170;6.728;2023-11-21T14:28:02;7.40;;;4.15;;
54743;SDS011;40639;53.170;6.728;2023-11-21T14:30:29;8.43;;;4.45;;
54743;SDS011;40639;53.170;6.728;2023-11-21T14:32:57;6.15;;;3.53;;
54743;SDS011;40639;53.170;6.728;2023-11-21T14:35:24;6.78;;;3.25;;
54743;SDS011;40639;53.170;6.728;2023-11-21T14:37:51;5.32;;;2.75;;
54743;SDS011;40639;53.170;6.728;2023-11-21T14:40:18;4.78;;;3.17;;
54743;SDS011;40639;53.170;6.728;2023-11-21T14:42:49;7.25;;;2.97;;
54743;SDS011;40639;53.170;6.728;2023-11-21T14:45:18;4.07;;;2.80;;
54743;SDS011;40639;53.170;6.728;2023-11-21T14:47:48;8.02;;;3.75;;
54743;SDS011;40639;53.170;6.728;2023-11-21T14:50:25;7.05;;;3.42;;
54743;SDS011;40639;53.170;6.728;2023-11-21T14:53:08;6.50;;;3.08;;